sensor_id;sensor_type;location;lat;lon;timestamp;P1;durP1;ratioP1;P2;durP2;ratioP2
15526;SDS011;7865;50.918;4.510;2023-08-30T00:04:20;8.07;;;5.27;;
15526;SDS011;7865;50.918;4.510;2023-08-30T00:09:22;7.20;;;5.50;;
15526;SDS011;7865;50.918;4.510;2023-08-30T00:14:23;7.93;;;5.30;;
15526;SDS011;7865;50.918;4.510;2023-08-30T00:19:25;8.23;;;5.03;;
15526;SDS011;7865;50.918;4.510;2023-08-30T00:24:26;5.97;;;5.20;;
15526;SDS011;7865;50.918;4.510;2023-08-30T00:29:28;7.80;;;5.10;;
15526;SDS011;7865;50.918;4.510;2023-08-30T00:34:29;7.27;;;5.40;;
15526;SDS011;7865;50.918;4.510;2023-08-30T00:39:31;8.47;;;4.97;;
15526;SDS011;7865;50.918;4.510;2023-08-30T00:44:34;10.77;;;5.37;;
15526;SDS011;7865;50.918;4.510;2023-08-30T00:49:35;9.93;;;5.10;;
15526;SDS011;7865;50.918;4.510;2023-08-30T00:54:37;7.83;;;5.33;;
15526;SDS011;7865;50.918;4.510;2023-08-30T00:59:39;7.17;;;4.87;;
15526;SDS011;7865;50.918;4.510;2023-08-30T01:04:41;8.33;;;4.70;;
15526;SDS011;7865;50.918;4.510;2023-08-30T01:09:42;5.77;;;5.00;;
15526;SDS011;7865;50.918;4.510;2023-08-30T01:14:45;8.60;;;4.60;;
15526;SDS011;7865;50.918;4.510;2023-08-30T01:20:04;6.53;;;4.80;;
15526;SDS011;7865;50.918;4.510;2023-08-30T01:30:45;8.93;;;5.50;;
15526;SDS011;7865;50.918;4.510;2023-08-30T01:35:47;7.17;;;5.33;;
15526;SDS011;7865;50.918;4.510;2023-08-30T01:40:48;7.07;;;4.87;;
15526;SDS011;7865;50.918;4.510;2023-08-30T01:45:51;7.20;;;5.30;;
15526;SDS011;7865;50.918;4.510;2023-08-30T01:50:53;6.70;;;4.53;;
15526;SDS011;7865;50.918;4.510;2023-08-30T01:55:59;8.13;;;5.90;;
15526;SDS011;7865;50.918;4.510;2023-08-30T02:01:01;9.07;;;5.60;;
15526;SDS011;7865;50.918;4.510;2023-08-30T02:06:05;9.70;;;6.40;;
15526;SDS011;7865;50.918;4.510;2023-08-30T02:11:14;9.67;;;7.07;;
15526;SDS011;7865;50.918;4.510;2023-08-30T02:16:20;8.00;;;6.77;;
15526;SDS011;7865;50.918;4.510;2023-08-30T02:21:23;9.17;;;6.90;;
15526;SDS011;7865;50.918;4.510;2023-08-30T02:26:25;9.90;;;6.17;;
15526;SDS011;7865;50.918;4.510;2023-08-30T02:31:26;7.57;;;5.67;;
15526;SDS011;7865;50.918;4.510;2023-08-30T02:36:28;7.33;;;5.53;;
15526;SDS011;7865;50.918;4.510;2023-08-30T02:41:30;6.80;;;5.53;;
15526;SDS011;7865;50.918;4.510;2023-08-30T02:46:32;7.47;;;5.03;;
15526;SDS011;7865;50.918;4.510;2023-08-30T02:51:33;10.27;;;5.97;;
15526;SDS011;7865;50.918;4.510;2023-08-30T02:56:35;7.37;;;5.47;;
15526;SDS011;7865;50.918;4.510;2023-08-30T03:01:36;13.80;;;5.27;;
15526;SDS011;7865;50.918;4.510;2023-08-30T03:06:38;7.37;;;5.50;;
15526;SDS011;7865;50.918;4.510;2023-08-30T03:11:40;10.90;;;5.23;;
15526;SDS011;7865;50.918;4.510;2023-08-30T03:16:41;7.50;;;4.90;;
15526;SDS011;7865;50.918;4.510;2023-08-30T03:21:45;11.47;;;5.63;;
15526;SDS011;7865;50.918;4.510;2023-08-30T03:26:47;12.37;;;6.87;;
15526;SDS011;7865;50.918;4.510;2023-08-30T03:31:48;17.33;;;8.97;;
15526;SDS011;7865;50.918;4.510;2023-08-30T03:36:50;14.33;;;7.97;;
15526;SDS011;7865;50.918;4.510;2023-08-30T03:41:55;17.67;;;8.77;;
15526;SDS011;7865;50.918;4.510;2023-08-30T03:46:57;12.37;;;7.33;;
15526;SDS011;7865;50.918;4.510;2023-08-30T03:51:58;8.90;;;6.37;;
15526;SDS011;7865;50.918;4.510;2023-08-30T03:57:01;9.53;;;6.20;;
15526;SDS011;7865;50.918;4.510;2023-08-30T04:02:02;8.50;;;5.70;;
15526;SDS011;7865;50.918;4.510;2023-08-30T04:07:03;9.17;;;6.10;;
15526;SDS011;7865;50.918;4.510;2023-08-30T04:12:05;10.27;;;5.93;;
15526;SDS011;7865;50.918;4.510;2023-08-30T04:17:07;10.43;;;5.45;;
15526;SDS011;7865;50.918;4.510;2023-08-30T04:22:08;7.70;;;5.13;;
15526;SDS011;7865;50.918;4.510;2023-08-30T04:27:09;13.37;;;4.87;;
15526;SDS011;7865;50.918;4.510;2023-08-30T04:32:11;7.97;;;4.97;;
15526;SDS011;7865;50.918;4.510;2023-08-30T04:37:12;15.37;;;5.97;;
15526;SDS011;7865;50.918;4.510;2023-08-30T04:42:15;10.27;;;5.53;;
15526;SDS011;7865;50.918;4.510;2023-08-30T04:47:17;14.83;;;5.87;;
15526;SDS011;7865;50.918;4.510;2023-08-30T04:52:19;10.70;;;6.43;;
15526;SDS011;7865;50.918;4.510;2023-08-30T04:57:20;9.10;;;5.67;;
15526;SDS011;7865;50.918;4.510;2023-08-30T05:02:22;10.70;;;5.47;;
15526;SDS011;7865;50.918;4.510;2023-08-30T05:07:33;13.73;;;6.27;;
15526;SDS011;7865;50.918;4.510;2023-08-30T05:12:35;12.97;;;6.87;;
15526;SDS011;7865;50.918;4.510;2023-08-30T05:17:37;13.17;;;6.47;;
15526;SDS011;7865;50.918;4.510;2023-08-30T05:22:39;9.23;;;5.83;;
15526;SDS011;7865;50.918;4.510;2023-08-30T05:27:40;11.57;;;5.97;;
15526;SDS011;7865;50.918;4.510;2023-08-30T05:32:43;11.20;;;6.20;;
15526;SDS011;7865;50.918;4.510;2023-08-30T05:38:07;12.50;;;6.10;;
15526;SDS011;7865;50.918;4.510;2023-08-30T05:43:16;10.10;;;5.60;;
15526;SDS011;7865;50.918;4.510;2023-08-30T05:48:18;8.53;;;6.07;;
15526;SDS011;7865;50.918;4.510;2023-08-30T05:53:20;7.40;;;5.40;;
15526;SDS011;7865;50.918;4.510;2023-08-30T05:58:22;10.37;;;6.07;;
15526;SDS011;7865;50.918;4.510;2023-08-30T06:03:23;8.80;;;5.33;;
15526;SDS011;7865;50.918;4.510;2023-08-30T06:08:25;9.03;;;6.37;;
15526;SDS011;7865;50.918;4.510;2023-08-30T06:13:26;9.20;;;5.57;;
15526;SDS011;7865;50.918;4.510;2023-08-30T06:18:31;7.67;;;5.27;;
15526;SDS011;7865;50.918;4.510;2023-08-30T06:23:37;7.60;;;4.93;;
15526;SDS011;7865;50.918;4.510;2023-08-30T06:28:39;8.60;;;4.93;;
15526;SDS011;7865;50.918;4.510;2023-08-30T06:33:43;6.30;;;4.13;;
15526;SDS011;7865;50.918;4.510;2023-08-30T06:38:45;4.90;;;4.13;;
15526;SDS011;7865;50.918;4.510;2023-08-30T06:43:46;11.67;;;4.43;;
15526;SDS011;7865;50.918;4.510;2023-08-30T06:48:47;6.33;;;4.27;;
15526;SDS011;7865;50.918;4.510;2023-08-30T06:53:50;8.67;;;4.63;;
15526;SDS011;7865;50.918;4.510;2023-08-30T06:58:51;7.00;;;4.87;;
15526;SDS011;7865;50.918;4.510;2023-08-30T07:03:53;5.83;;;4.80;;
15526;SDS011;7865;50.918;4.510;2023-08-30T07:08:54;7.50;;;5.20;;
15526;SDS011;7865;50.918;4.510;2023-08-30T07:13:56;6.37;;;4.73;;
15526;SDS011;7865;50.918;4.510;2023-08-30T07:18:57;7.43;;;4.80;;
15526;SDS011;7865;50.918;4.510;2023-08-30T07:23:59;6.80;;;4.77;;
15526;SDS011;7865;50.918;4.510;2023-08-30T07:29:00;7.07;;;5.20;;
15526;SDS011;7865;50.918;4.510;2023-08-30T07:34:07;8.80;;;4.70;;
15526;SDS011;7865;50.918;4.510;2023-08-30T07:39:08;5.10;;;4.13;;
15526;SDS011;7865;50.918;4.510;2023-08-30T07:44:10;5.88;;;4.80;;
15526;SDS011;7865;50.918;4.510;2023-08-30T07:49:11;5.70;;;4.90;;
15526;SDS011;7865;50.918;4.510;2023-08-30T07:54:13;6.18;;;4.55;;
15526;SDS011;7865;50.918;4.510;2023-08-30T07:59:14;8.85;;;5.22;;
15526;SDS011;7865;50.918;4.510;2023-08-30T08:04:16;5.70;;;3.92;;
15526;SDS011;7865;50.918;4.510;2023-08-30T08:09:17;5.80;;;4.07;;
15526;SDS011;7865;50.918;4.510;2023-08-30T08:14:18;6.82;;;3.72;;
15526;SDS011;7865;50.918;4.510;2023-08-30T08:19:20;6.47;;;4.63;;
15526;SDS011;7865;50.918;4.510;2023-08-30T08:24:26;7.20;;;4.90;;
15526;SDS011;7865;50.918;4.510;2023-08-30T08:29:27;7.00;;;4.63;;
15526;SDS011;7865;50.918;4.510;2023-08-30T08:34:35;8.27;;;5.20;;
15526;SDS011;7865;50.918;4.510;2023-08-30T08:39:36;5.93;;;4.75;;
15526;SDS011;7865;50.918;4.510;2023-08-30T08:44:37;8.45;;;5.72;;
15526;SDS011;7865;50.918;4.510;2023-08-30T08:49:40;7.05;;;4.88;;
15526;SDS011;7865;50.918;4.510;2023-08-30T08:54:43;8.55;;;5.57;;
15526;SDS011;7865;50.918;4.510;2023-08-30T08:59:45;8.90;;;6.03;;
15526;SDS011;7865;50.918;4.510;2023-08-30T09:04:47;8.40;;;6.35;;
15526;SDS011;7865;50.918;4.510;2023-08-30T09:09:48;12.15;;;8.95;;
15526;SDS011;7865;50.918;4.510;2023-08-30T09:14:54;8.75;;;7.18;;
15526;SDS011;7865;50.918;4.510;2023-08-30T09:20:04;9.68;;;7.18;;
15526;SDS011;7865;50.918;4.510;2023-08-30T09:25:11;7.30;;;6.22;;
15526;SDS011;7865;50.918;4.510;2023-08-30T09:30:27;5.90;;;5.07;;
15526;SDS011;7865;50.918;4.510;2023-08-30T09:35:29;8.55;;;5.45;;
15526;SDS011;7865;50.918;4.510;2023-08-30T09:40:30;6.82;;;5.22;;
15526;SDS011;7865;50.918;4.510;2023-08-30T09:45:32;6.18;;;5.57;;
15526;SDS011;7865;50.918;4.510;2023-08-30T09:50:34;5.97;;;5.38;;
15526;SDS011;7865;50.918;4.510;2023-08-30T09:55:37;6.47;;;5.80;;
15526;SDS011;7865;50.918;4.510;2023-08-30T10:00:39;6.40;;;5.80;;
15526;SDS011;7865;50.918;4.510;2023-08-30T10:05:41;7.13;;;6.13;;
15526;SDS011;7865;50.918;4.510;2023-08-30T10:10:43;9.13;;;6.38;;
15526;SDS011;7865;50.918;4.510;2023-08-30T10:15:45;7.32;;;6.20;;
15526;SDS011;7865;50.918;4.510;2023-08-30T10:20:49;8.38;;;7.47;;
15526;SDS011;7865;50.918;4.510;2023-08-30T10:25:54;9.13;;;7.53;;
15526;SDS011;7865;50.918;4.510;2023-08-30T10:30:56;10.32;;;7.15;;
15526;SDS011;7865;50.918;4.510;2023-08-30T10:36:07;9.70;;;7.82;;
15526;SDS011;7865;50.918;4.510;2023-08-30T10:41:08;10.88;;;8.80;;
15526;SDS011;7865;50.918;4.510;2023-08-30T10:46:10;10.70;;;8.55;;
15526;SDS011;7865;50.918;4.510;2023-08-30T10:51:23;8.18;;;7.38;;
15526;SDS011;7865;50.918;4.510;2023-08-30T10:56:46;7.93;;;7.18;;
15526;SDS011;7865;50.918;4.510;2023-08-30T11:01:51;8.55;;;6.28;;
15526;SDS011;7865;50.918;4.510;2023-08-30T11:06:54;7.32;;;6.40;;
15526;SDS011;7865;50.918;4.510;2023-08-30T11:11:56;9.38;;;6.65;;
15526;SDS011;7865;50.918;4.510;2023-08-30T11:17:09;8.23;;;6.78;;
15526;SDS011;7865;50.918;4.510;2023-08-30T11:22:14;10.20;;;7.13;;
15526;SDS011;7865;50.918;4.510;2023-08-30T11:27:17;10.50;;;7.43;;
15526;SDS011;7865;50.918;4.510;2023-08-30T11:32:19;14.63;;;6.78;;
15526;SDS011;7865;50.918;4.510;2023-08-30T11:37:21;7.35;;;4.80;;
15526;SDS011;7865;50.918;4.510;2023-08-30T11:42:23;10.40;;;5.55;;
15526;SDS011;7865;50.918;4.510;2023-08-30T11:47:25;6.97;;;3.80;;
15526;SDS011;7865;50.918;4.510;2023-08-30T11:52:27;5.07;;;1.92;;
15526;SDS011;7865;50.918;4.510;2023-08-30T11:57:32;5.22;;;2.97;;
15526;SDS011;7865;50.918;4.510;2023-08-30T12:02:35;8.50;;;2.20;;
15526;SDS011;7865;50.918;4.510;2023-08-30T12:07:37;5.43;;;2.00;;
15526;SDS011;7865;50.918;4.510;2023-08-30T12:12:43;4.90;;;1.92;;
15526;SDS011;7865;50.918;4.510;2023-08-30T12:17:45;8.38;;;2.50;;
15526;SDS011;7865;50.918;4.510;2023-08-30T12:22:47;5.75;;;2.10;;
15526;SDS011;7865;50.918;4.510;2023-08-30T12:27:50;7.68;;;2.55;;
15526;SDS011;7865;50.918;4.510;2023-08-30T12:32:59;6.88;;;2.17;;
15526;SDS011;7865;50.918;4.510;2023-08-30T12:38:02;6.05;;;2.22;;
15526;SDS011;7865;50.918;4.510;2023-08-30T12:43:04;6.60;;;2.50;;
15526;SDS011;7865;50.918;4.510;2023-08-30T12:48:06;5.78;;;1.80;;
15526;SDS011;7865;50.918;4.510;2023-08-30T12:53:08;6.22;;;2.05;;
15526;SDS011;7865;50.918;4.510;2023-08-30T12:58:10;7.32;;;2.00;;
15526;SDS011;7865;50.918;4.510;2023-08-30T13:03:12;6.78;;;2.30;;
15526;SDS011;7865;50.918;4.510;2023-08-30T13:08:14;12.23;;;2.42;;
15526;SDS011;7865;50.918;4.510;2023-08-30T13:13:16;8.32;;;2.33;;
15526;SDS011;7865;50.918;4.510;2023-08-30T13:18:18;6.65;;;2.03;;
15526;SDS011;7865;50.918;4.510;2023-08-30T13:23:19;7.15;;;1.67;;
15526;SDS011;7865;50.918;4.510;2023-08-30T13:28:21;5.10;;;1.70;;
15526;SDS011;7865;50.918;4.510;2023-08-30T13:33:22;4.72;;;1.67;;
15526;SDS011;7865;50.918;4.510;2023-08-30T13:38:24;4.80;;;1.77;;
15526;SDS011;7865;50.918;4.510;2023-08-30T13:43:26;8.15;;;2.10;;
15526;SDS011;7865;50.918;4.510;2023-08-30T13:48:27;4.07;;;1.70;;
15526;SDS011;7865;50.918;4.510;2023-08-30T13:53:29;2.75;;;1.20;;
15526;SDS011;7865;50.918;4.510;2023-08-30T13:58:31;6.57;;;1.77;;
15526;SDS011;7865;50.918;4.510;2023-08-30T14:03:32;3.83;;;1.42;;
15526;SDS011;7865;50.918;4.510;2023-08-30T14:08:34;3.45;;;1.27;;
15526;SDS011;7865;50.918;4.510;2023-08-30T14:13:36;3.72;;;1.42;;
15526;SDS011;7865;50.918;4.510;2023-08-30T14:18:37;5.93;;;1.48;;
15526;SDS011;7865;50.918;4.510;2023-08-30T14:23:38;5.25;;;1.67;;
15526;SDS011;7865;50.918;4.510;2023-08-30T14:28:40;2.30;;;1.00;;
15526;SDS011;7865;50.918;4.510;2023-08-30T14:33:42;11.15;;;2.17;;
15526;SDS011;7865;50.918;4.510;2023-08-30T14:38:47;5.10;;;2.03;;
15526;SDS011;7865;50.918;4.510;2023-08-30T14:43:48;6.28;;;1.70;;
15526;SDS011;7865;50.918;4.510;2023-08-30T14:48:50;9.13;;;1.80;;
15526;SDS011;7865;50.918;4.510;2023-08-30T14:53:51;4.88;;;1.75;;
15526;SDS011;7865;50.918;4.510;2023-08-30T14:58:53;5.47;;;1.63;;
15526;SDS011;7865;50.918;4.510;2023-08-30T15:03:54;3.38;;;1.30;;
15526;SDS011;7865;50.918;4.510;2023-08-30T15:08:56;5.57;;;1.58;;
15526;SDS011;7865;50.918;4.510;2023-08-30T15:13:58;3.45;;;1.55;;
15526;SDS011;7865;50.918;4.510;2023-08-30T15:19:00;5.93;;;1.55;;
15526;SDS011;7865;50.918;4.510;2023-08-30T15:24:02;5.68;;;1.90;;
15526;SDS011;7865;50.918;4.510;2023-08-30T15:29:05;3.67;;;1.20;;
15526;SDS011;7865;50.918;4.510;2023-08-30T15:34:07;7.72;;;1.45;;
15526;SDS011;7865;50.918;4.510;2023-08-30T15:39:08;5.22;;;1.60;;
15526;SDS011;7865;50.918;4.510;2023-08-30T15:44:09;5.85;;;1.63;;
15526;SDS011;7865;50.918;4.510;2023-08-30T15:49:11;3.70;;;1.52;;
15526;SDS011;7865;50.918;4.510;2023-08-30T15:54:12;4.03;;;1.00;;
15526;SDS011;7865;50.918;4.510;2023-08-30T15:59:14;5.70;;;1.85;;
15526;SDS011;7865;50.918;4.510;2023-08-30T16:04:15;2.78;;;1.10;;
15526;SDS011;7865;50.918;4.510;2023-08-30T16:09:17;5.88;;;1.90;;
15526;SDS011;7865;50.918;4.510;2023-08-30T16:14:18;4.78;;;1.63;;
15526;SDS011;7865;50.918;4.510;2023-08-30T16:19:19;4.45;;;1.30;;
15526;SDS011;7865;50.918;4.510;2023-08-30T16:24:23;4.18;;;1.30;;
15526;SDS011;7865;50.918;4.510;2023-08-30T16:29:24;5.53;;;1.23;;
15526;SDS011;7865;50.918;4.510;2023-08-30T16:34:26;5.13;;;1.38;;
15526;SDS011;7865;50.918;4.510;2023-08-30T16:39:27;3.22;;;1.52;;
15526;SDS011;7865;50.918;4.510;2023-08-30T16:44:29;3.20;;;1.15;;
15526;SDS011;7865;50.918;4.510;2023-08-30T16:49:30;4.05;;;1.38;;
15526;SDS011;7865;50.918;4.510;2023-08-30T16:54:32;3.92;;;1.10;;
15526;SDS011;7865;50.918;4.510;2023-08-30T16:59:33;4.65;;;1.80;;
15526;SDS011;7865;50.918;4.510;2023-08-30T17:04:35;3.40;;;1.20;;
15526;SDS011;7865;50.918;4.510;2023-08-30T17:09:38;5.47;;;1.60;;
15526;SDS011;7865;50.918;4.510;2023-08-30T17:14:40;5.10;;;1.67;;
15526;SDS011;7865;50.918;4.510;2023-08-30T17:19:41;4.63;;;1.25;;
15526;SDS011;7865;50.918;4.510;2023-08-30T17:24:42;5.63;;;1.70;;
15526;SDS011;7865;50.918;4.510;2023-08-30T17:29:44;14.02;;;6.15;;
15526;SDS011;7865;50.918;4.510;2023-08-30T17:34:45;4.05;;;1.83;;
15526;SDS011;7865;50.918;4.510;2023-08-30T17:39:49;2.00;;;1.33;;
15526;SDS011;7865;50.918;4.510;2023-08-30T17:44:50;3.78;;;1.75;;
15526;SDS011;7865;50.918;4.510;2023-08-30T17:50:00;4.50;;;1.30;;
15526;SDS011;7865;50.918;4.510;2023-08-30T17:55:01;4.88;;;1.40;;
15526;SDS011;7865;50.918;4.510;2023-08-30T18:00:04;4.65;;;1.60;;
15526;SDS011;7865;50.918;4.510;2023-08-30T18:05:12;5.60;;;1.48;;
15526;SDS011;7865;50.918;4.510;2023-08-30T18:10:14;6.05;;;1.58;;
15526;SDS011;7865;50.918;4.510;2023-08-30T18:15:16;6.10;;;1.67;;
15526;SDS011;7865;50.918;4.510;2023-08-30T18:20:17;3.47;;;1.90;;
15526;SDS011;7865;50.918;4.510;2023-08-30T18:25:18;4.60;;;2.58;;
15526;SDS011;7865;50.918;4.510;2023-08-30T18:30:20;6.85;;;2.47;;
15526;SDS011;7865;50.918;4.510;2023-08-30T18:35:21;5.63;;;3.47;;
15526;SDS011;7865;50.918;4.510;2023-08-30T18:40:23;9.15;;;5.88;;
15526;SDS011;7865;50.918;4.510;2023-08-30T18:45:25;8.90;;;5.88;;
15526;SDS011;7865;50.918;4.510;2023-08-30T18:50:26;10.15;;;4.80;;
15526;SDS011;7865;50.918;4.510;2023-08-30T18:55:28;10.05;;;2.88;;
15526;SDS011;7865;50.918;4.510;2023-08-30T19:00:34;7.22;;;3.10;;
15526;SDS011;7865;50.918;4.510;2023-08-30T19:05:36;7.05;;;3.00;;
15526;SDS011;7865;50.918;4.510;2023-08-30T19:10:40;5.50;;;2.30;;
15526;SDS011;7865;50.918;4.510;2023-08-30T19:15:42;6.90;;;2.42;;
15526;SDS011;7865;50.918;4.510;2023-08-30T19:20:45;5.90;;;2.20;;
15526;SDS011;7865;50.918;4.510;2023-08-30T19:25:54;4.47;;;2.70;;
15526;SDS011;7865;50.918;4.510;2023-08-30T19:30:56;4.97;;;2.53;;
15526;SDS011;7865;50.918;4.510;2023-08-30T19:35:57;5.97;;;2.50;;
15526;SDS011;7865;50.918;4.510;2023-08-30T19:40:58;4.68;;;2.53;;
15526;SDS011;7865;50.918;4.510;2023-08-30T19:46:03;5.80;;;2.30;;
15526;SDS011;7865;50.918;4.510;2023-08-30T19:51:05;5.30;;;2.40;;
15526;SDS011;7865;50.918;4.510;2023-08-30T19:56:07;8.05;;;4.78;;
15526;SDS011;7865;50.918;4.510;2023-08-30T20:01:08;8.27;;;3.70;;
15526;SDS011;7865;50.918;4.510;2023-08-30T20:06:09;6.70;;;4.10;;
15526;SDS011;7865;50.918;4.510;2023-08-30T20:11:11;6.47;;;3.87;;
15526;SDS011;7865;50.918;4.510;2023-08-30T20:16:12;4.57;;;3.60;;
15526;SDS011;7865;50.918;4.510;2023-08-30T20:21:13;6.73;;;3.70;;
15526;SDS011;7865;50.918;4.510;2023-08-30T20:26:15;5.97;;;3.40;;
15526;SDS011;7865;50.918;4.510;2023-08-30T20:31:17;11.63;;;6.07;;
15526;SDS011;7865;50.918;4.510;2023-08-30T20:36:18;7.40;;;3.17;;
15526;SDS011;7865;50.918;4.510;2023-08-30T20:41:31;3.70;;;2.47;;
15526;SDS011;7865;50.918;4.510;2023-08-30T20:46:32;3.43;;;2.07;;
15526;SDS011;7865;50.918;4.510;2023-08-30T20:51:34;5.83;;;2.40;;
15526;SDS011;7865;50.918;4.510;2023-08-30T20:56:36;5.03;;;2.10;;
15526;SDS011;7865;50.918;4.510;2023-08-30T21:01:38;3.87;;;1.87;;
15526;SDS011;7865;50.918;4.510;2023-08-30T21:06:39;2.17;;;1.73;;
15526;SDS011;7865;50.918;4.510;2023-08-30T21:11:40;1.80;;;1.70;;
15526;SDS011;7865;50.918;4.510;2023-08-30T21:16:42;2.03;;;1.50;;
15526;SDS011;7865;50.918;4.510;2023-08-30T21:21:43;2.47;;;1.50;;
15526;SDS011;7865;50.918;4.510;2023-08-30T21:26:44;2.23;;;1.53;;
15526;SDS011;7865;50.918;4.510;2023-08-30T21:31:46;1.50;;;1.40;;
15526;SDS011;7865;50.918;4.510;2023-08-30T21:36:47;4.23;;;1.90;;
15526;SDS011;7865;50.918;4.510;2023-08-30T21:41:49;3.27;;;1.80;;
15526;SDS011;7865;50.918;4.510;2023-08-30T21:46:50;3.47;;;1.80;;
15526;SDS011;7865;50.918;4.510;2023-08-30T21:51:53;2.23;;;1.93;;
15526;SDS011;7865;50.918;4.510;2023-08-30T21:56:54;1.73;;;1.50;;
15526;SDS011;7865;50.918;4.510;2023-08-30T22:01:55;1.97;;;1.70;;
15526;SDS011;7865;50.918;4.510;2023-08-30T22:06:57;2.50;;;1.70;;
15526;SDS011;7865;50.918;4.510;2023-08-30T22:11:58;4.57;;;1.40;;
15526;SDS011;7865;50.918;4.510;2023-08-30T22:16:59;2.63;;;1.53;;
15526;SDS011;7865;50.918;4.510;2023-08-30T22:22:01;1.70;;;1.37;;
15526;SDS011;7865;50.918;4.510;2023-08-30T22:27:03;4.00;;;1.60;;
15526;SDS011;7865;50.918;4.510;2023-08-30T22:32:05;1.73;;;1.53;;
15526;SDS011;7865;50.918;4.510;2023-08-30T22:37:06;3.80;;;1.63;;
15526;SDS011;7865;50.918;4.510;2023-08-30T22:42:08;4.73;;;1.90;;
15526;SDS011;7865;50.918;4.510;2023-08-30T22:47:09;5.17;;;1.50;;
15526;SDS011;7865;50.918;4.510;2023-08-30T22:52:11;2.90;;;1.30;;
15526;SDS011;7865;50.918;4.510;2023-08-30T22:57:13;4.07;;;1.37;;
15526;SDS011;7865;50.918;4.510;2023-08-30T23:02:15;2.20;;;1.40;;
15526;SDS011;7865;50.918;4.510;2023-08-30T23:07:17;3.53;;;1.73;;
15526;SDS011;7865;50.918;4.510;2023-08-30T23:12:18;3.30;;;1.80;;
15526;SDS011;7865;50.918;4.510;2023-08-30T23:17:19;2.33;;;1.57;;
15526;SDS011;7865;50.918;4.510;2023-08-30T23:22:21;1.53;;;1.43;;
15526;SDS011;7865;50.918;4.510;2023-08-30T23:27:22;2.90;;;1.87;;
15526;SDS011;7865;50.918;4.510;2023-08-30T23:32:25;2.57;;;1.70;;
15526;SDS011;7865;50.918;4.510;2023-08-30T23:37:27;3.37;;;1.60;;
15526;SDS011;7865;50.918;4.510;2023-08-30T23:42:29;3.10;;;1.57;;
15526;SDS011;7865;50.918;4.510;2023-08-30T23:47:31;7.70;;;1.70;;
15526;SDS011;7865;50.918;4.510;2023-08-30T23:52:33;3.00;;;1.97;;
15526;SDS011;7865;50.918;4.510;2023-08-30T23:57:34;4.60;;;1.87;;
